createdAt,value
2019-06-27T00:01:36.439Z,101364.28
2019-06-27T00:04:02.582Z,101371.69
2019-06-27T00:06:28.616Z,101369.76
2019-06-27T00:08:54.699Z,101369.17
2019-06-27T00:11:20.750Z,101371.17
2019-06-27T00:13:46.675Z,101367.44
2019-06-27T00:16:12.776Z,101376.08
2019-06-27T00:18:38.766Z,101371.47
2019-06-27T00:21:04.758Z,101359.59
2019-06-27T00:23:30.791Z,101365.61
2019-06-27T00:25:56.716Z,101368.02
2019-06-27T00:28:22.827Z,101372.69
2019-06-27T00:30:48.937Z,101378.23
2019-06-27T00:33:15.094Z,101370.02
2019-06-27T00:35:41.343Z,101382.72
2019-06-27T00:38:07.439Z,101382.03
2019-06-27T00:40:33.497Z,101381.84
2019-06-27T00:42:59.406Z,101381.16
2019-06-27T00:45:25.418Z,101378.76
2019-06-27T00:47:51.482Z,101382.58
2019-06-27T00:50:17.702Z,101386.88
2019-06-27T00:52:44.998Z,101384.47
2019-06-27T00:55:11.145Z,101397.64
2019-06-27T00:57:37.149Z,101388.07
2019-06-27T01:00:05.753Z,101385.58
2019-06-27T01:02:31.730Z,101388.89
2019-06-27T01:04:57.658Z,101394.52
2019-06-27T01:07:23.679Z,101397.29
2019-06-27T01:09:49.684Z,101400.61
2019-06-27T01:12:15.617Z,101398.11
2019-06-27T01:14:41.760Z,101395.23
2019-06-27T01:17:08.084Z,101398.55
2019-06-27T01:19:34.007Z,101397.30
2019-06-27T01:22:00.017Z,101401.03
2019-06-27T01:24:26.051Z,101406.53
2019-06-27T01:26:52.076Z,101405.28
2019-06-27T01:29:18.195Z,101403.16
2019-06-27T01:31:44.114Z,101402.95
2019-06-27T01:34:10.050Z,101406.27
2019-06-27T01:36:36.119Z,101411.80
2019-06-27T01:39:02.335Z,101402.14
2019-06-27T01:41:28.371Z,101396.47
2019-06-27T01:43:54.514Z,101409.93
2019-06-27T01:46:20.423Z,101398.56
2019-06-27T01:48:46.333Z,101408.39
2019-06-27T01:51:12.661Z,101409.81
2019-06-27T01:53:38.776Z,101410.86
2019-06-27T01:56:04.883Z,101411.32
2019-06-27T01:58:30.928Z,101405.68
2019-06-27T02:00:56.926Z,101411.49
2019-06-27T02:03:22.954Z,101413.88
2019-06-27T02:05:49.185Z,101414.72
2019-06-27T02:08:15.094Z,101412.91
2019-06-27T02:10:41.268Z,101420.85
2019-06-27T02:13:07.437Z,101418.55
2019-06-27T02:15:33.468Z,101410.53
2019-06-27T02:17:59.582Z,101417.63
2019-06-27T02:20:25.727Z,101402.83
2019-06-27T02:22:51.737Z,101399.66
2019-06-27T02:25:18.154Z,101398.23
2019-06-27T02:27:44.403Z,101400.83
2019-06-27T02:30:11.323Z,101402.58
2019-06-27T02:32:37.318Z,101408.22
2019-06-27T02:35:06.825Z,101405.16
2019-06-27T02:37:32.735Z,101402.41
2019-06-27T02:39:58.629Z,101408.68
2019-06-27T02:42:24.794Z,101404.98
2019-06-27T02:44:50.813Z,101405.36
2019-06-27T02:47:16.709Z,101404.81
2019-06-27T02:49:42.819Z,101408.24
2019-06-27T02:52:08.841Z,101410.86
2019-06-27T02:54:34.839Z,101405.34
2019-06-27T02:57:01.077Z,101409.64
2019-06-27T02:59:26.993Z,101411.77
2019-06-27T03:01:53.008Z,101399.64
2019-06-27T03:04:19.033Z,101403.06
2019-06-27T03:06:45.052Z,101395.91
2019-06-27T03:09:11.196Z,101403.85
2019-06-27T03:11:37.478Z,101405.56
2019-06-27T03:14:03.618Z,101405.10
2019-06-27T03:16:29.654Z,101396.61
2019-06-27T03:18:55.784Z,101394.72
2019-06-27T03:21:21.808Z,101392.91
2019-06-27T03:23:48.000Z,101398.18
2019-06-27T03:26:14.120Z,101402.57
2019-06-27T03:28:51.925Z,101401.64
2019-06-27T03:31:07.863Z,101400.30
2019-06-27T03:33:33.978Z,101410.92
2019-06-27T03:35:59.893Z,101402.02
2019-06-27T03:38:25.946Z,101410.83
2019-06-27T03:40:52.061Z,101401.92
2019-06-27T03:43:17.969Z,101405.30
2019-06-27T03:45:43.907Z,101399.45
2019-06-27T03:48:10.213Z,101403.78
2019-06-27T03:50:36.105Z,101397.55
2019-06-27T03:53:02.181Z,101397.88
2019-06-27T03:55:28.380Z,101402.27
2019-06-27T03:57:54.312Z,101407.06
2019-06-27T04:00:24.070Z,101393.97
2019-06-27T04:02:50.288Z,101397.02
2019-06-27T04:05:16.202Z,101391.48
2019-06-27T04:07:42.149Z,101391.39
2019-06-27T04:10:08.446Z,101394.86
2019-06-27T04:12:34.688Z,101399.16
2019-06-27T04:15:00.755Z,101397.27
2019-06-27T04:17:26.956Z,101393.16
2019-06-27T04:19:52.959Z,101391.26
2019-06-27T04:22:19.098Z,101396.98
2019-06-27T04:24:45.410Z,101385.72
2019-06-27T04:27:11.421Z,101385.63
2019-06-27T04:29:37.467Z,101396.16
2019-06-27T04:32:03.599Z,101397.41
2019-06-27T04:34:29.615Z,101391.96
2019-06-27T04:36:55.648Z,101394.08
2019-06-27T04:39:21.789Z,101394.36
2019-06-27T04:41:47.710Z,101383.93
2019-06-27T04:44:13.843Z,101392.19
2019-06-27T04:46:39.833Z,101387.48
2019-06-27T04:49:05.752Z,101384.53
2019-06-27T04:51:31.868Z,101381.20
2019-06-27T04:53:58.027Z,101376.89
2019-06-27T04:56:23.964Z,101379.70
2019-06-27T04:58:50.014Z,101384.78
2019-06-27T05:01:16.031Z,101381.81
2019-06-27T05:03:41.953Z,101389.08
2019-06-27T05:06:07.940Z,101376.73
2019-06-27T05:08:34.056Z,101374.16
2019-06-27T05:11:00.046Z,101379.52
2019-06-27T05:13:26.496Z,101377.42
2019-06-27T05:15:52.851Z,101373.01
2019-06-27T05:18:18.778Z,101376.30
2019-06-27T05:20:44.705Z,101373.90
2019-06-27T05:23:10.787Z,101374.08
2019-06-27T05:25:36.703Z,101363.66
2019-06-27T05:28:02.730Z,101367.58
2019-06-27T05:30:28.768Z,101382.23
2019-06-27T05:32:54.763Z,101378.11
2019-06-27T05:35:20.700Z,101373.02
2019-06-27T05:37:46.901Z,101383.66
2019-06-27T05:40:13.125Z,101372.08
2019-06-27T05:42:39.078Z,101370.74
2019-06-27T05:45:05.500Z,101376.58
2019-06-27T05:47:31.406Z,101368.80
2019-06-27T05:49:57.469Z,101357.88
2019-06-27T05:52:23.547Z,101362.10
2019-06-27T05:54:49.479Z,101365.83
2019-06-27T05:57:15.491Z,101363.31
2019-06-27T05:59:41.529Z,101379.02
2019-06-27T06:02:07.490Z,101362.62
2019-06-27T06:04:33.505Z,101368.19
2019-06-27T06:06:59.733Z,101363.35
2019-06-27T06:09:25.681Z,101359.53
2019-06-27T06:11:51.588Z,101353.86
2019-06-27T06:14:17.717Z,101341.94
2019-06-27T06:16:43.634Z,101349.69
2019-06-27T06:19:09.600Z,101349.75
2019-06-27T06:21:35.702Z,101340.44
2019-06-27T06:24:01.581Z,101351.34
2019-06-27T06:26:27.520Z,101346.54
2019-06-27T06:28:53.503Z,101336.36
2019-06-27T06:31:19.415Z,101340.91
2019-06-27T06:33:45.454Z,101345.97
2019-06-27T06:36:11.538Z,101340.61
2019-06-27T06:38:37.429Z,101338.84
2019-06-27T06:41:03.552Z,101347.46
2019-06-27T06:43:29.765Z,101350.30
2019-06-27T06:45:55.846Z,101357.58
2019-06-27T06:48:21.897Z,101348.06
2019-06-27T06:50:48.010Z,101352.35
2019-06-27T06:53:14.012Z,101351.77
2019-06-27T06:55:42.679Z,101349.13
2019-06-27T06:58:08.082Z,101356.41
2019-06-27T07:00:34.067Z,101344.45
2019-06-27T07:03:00.141Z,101350.38
2019-06-27T07:05:26.270Z,101360.59
2019-06-27T07:07:52.249Z,101354.31
2019-06-27T07:10:20.282Z,101355.11
2019-06-27T07:12:46.735Z,101362.27
2019-06-27T07:15:13.011Z,101354.23
2019-06-27T07:17:39.122Z,101352.56
2019-06-27T07:20:05.728Z,101351.76
2019-06-27T07:22:31.775Z,101357.93
2019-06-27T07:24:57.798Z,101360.17
2019-06-27T07:27:23.801Z,101349.11
2019-06-27T07:29:49.821Z,101361.36
2019-06-27T07:32:15.873Z,101355.17
2019-06-27T07:34:41.887Z,101360.58
2019-06-27T07:37:07.783Z,101370.70
2019-06-27T07:39:33.728Z,101362.66
2019-06-27T07:41:59.943Z,101300.44
2019-06-27T07:44:25.841Z,101366.58
2019-06-27T07:46:51.782Z,101358.02
2019-06-27T07:49:17.873Z,101367.56
2019-06-27T07:51:43.872Z,101366.80
2019-06-27T07:54:10.028Z,101363.47
2019-06-27T07:56:36.056Z,101368.02
2019-06-27T07:59:01.947Z,101349.00
2019-06-27T08:01:34.909Z,101372.84
2019-06-27T08:03:55.842Z,101360.48
2019-06-27T08:06:21.832Z,101373.61
2019-06-27T08:08:47.876Z,101369.12
2019-06-27T08:11:14.197Z,101378.09
2019-06-27T08:13:40.119Z,101379.20
2019-06-27T08:16:06.092Z,101386.81
2019-06-27T08:18:32.304Z,101401.34
2019-06-27T08:20:58.324Z,101397.88
2019-06-27T08:23:40.262Z,101407.28
2019-06-27T08:25:52.362Z,101407.22
2019-06-27T08:28:18.385Z,101404.50
2019-06-27T08:30:44.328Z,101421.24
2019-06-27T08:33:10.512Z,101416.59
2019-06-27T08:35:36.435Z,101415.43
2019-06-27T08:38:02.514Z,101412.38
2019-06-27T08:40:28.589Z,101421.55
2019-06-27T08:42:54.601Z,101423.84
2019-06-27T08:45:21.535Z,101415.77
2019-06-27T08:47:47.662Z,101415.04
2019-06-27T08:50:15.685Z,101418.86
2019-06-27T08:52:41.681Z,101416.05
2019-06-27T08:55:08.273Z,101411.91
2019-06-27T08:57:34.409Z,101414.38
2019-06-27T09:00:00.582Z,101413.89
2019-06-27T09:02:26.969Z,101408.40
2019-06-27T09:04:52.997Z,101413.05
2019-06-27T09:07:18.895Z,101422.14
2019-06-27T09:09:44.984Z,101415.07
2019-06-27T09:12:10.892Z,101421.58
2019-06-27T09:14:37.032Z,101419.87
2019-06-27T09:17:03.282Z,101422.20
2019-06-27T09:19:29.168Z,101433.81
2019-06-27T09:21:56.361Z,101419.51
2019-06-27T09:24:22.387Z,101426.48
2019-06-27T09:26:48.302Z,101423.58
2019-06-27T09:29:14.346Z,101422.00
2019-06-27T09:31:40.450Z,101433.53
2019-06-27T09:34:06.466Z,101426.83
2019-06-27T09:36:32.493Z,101420.50
2019-06-27T09:38:58.608Z,101422.52
2019-06-27T09:41:24.793Z,101421.34
2019-06-27T09:43:50.937Z,101419.08
2019-06-27T09:46:17.025Z,101419.65
2019-06-27T09:48:43.025Z,101416.01
2019-06-27T09:51:08.981Z,101409.31
2019-06-27T09:53:35.050Z,101415.59
2019-06-27T09:56:01.271Z,101415.27
2019-06-27T09:58:27.329Z,101417.77
2019-06-27T10:00:53.417Z,101414.09
2019-06-27T10:03:19.517Z,101417.20
2019-06-27T10:05:45.566Z,101415.38
2019-06-27T10:08:11.765Z,101423.97
2019-06-27T10:10:37.766Z,101426.66
2019-06-27T10:13:03.811Z,101421.99
2019-06-27T10:15:29.887Z,101429.96
2019-06-27T10:17:55.794Z,101432.02
2019-06-27T10:20:22.288Z,101429.05
2019-06-27T10:22:48.434Z,101431.39
2019-06-27T10:25:14.652Z,101426.36
2019-06-27T10:27:40.676Z,101437.76
2019-06-27T10:30:07.344Z,101445.22
2019-06-27T10:32:33.355Z,101431.73
2019-06-27T10:34:59.889Z,101434.81
2019-06-27T10:37:26.003Z,101429.41
2019-06-27T10:39:51.893Z,101443.30
2019-06-27T10:42:17.968Z,101437.17
2019-06-27T10:44:44.014Z,101443.32
2019-06-27T10:47:09.910Z,101447.85
2019-06-27T10:49:35.869Z,101451.15
2019-06-27T10:52:02.151Z,101441.70
2019-06-27T10:54:28.150Z,101443.80
2019-06-27T10:56:54.063Z,101430.33
2019-06-27T10:59:20.196Z,101434.76
2019-06-27T11:01:46.191Z,101445.69
2019-06-27T11:04:12.113Z,101446.41
2019-06-27T11:06:38.373Z,101443.59
2019-06-27T11:09:04.669Z,101441.97
2019-06-27T11:11:30.628Z,101433.13
2019-06-27T11:13:59.320Z,101436.72
2019-06-27T11:16:24.755Z,101438.80
2019-06-27T11:18:50.684Z,101451.11
2019-06-27T11:21:16.996Z,101440.28
2019-06-27T11:23:42.895Z,101443.83
2019-06-27T11:26:09.624Z,101448.94
2019-06-27T11:28:35.826Z,101458.28
2019-06-27T11:31:01.829Z,101458.16
2019-06-27T11:33:32.560Z,101453.97
2019-06-27T11:35:55.793Z,101452.03
2019-06-27T11:38:21.687Z,101448.94
2019-06-27T11:40:47.708Z,101451.64
2019-06-27T11:43:13.816Z,101445.88
2019-06-27T11:45:39.831Z,101450.80
2019-06-27T11:48:05.977Z,101452.04
2019-06-27T11:50:32.158Z,101458.69
2019-06-27T11:52:58.285Z,101455.25
2019-06-27T11:55:24.466Z,101458.08
2019-06-27T11:57:50.412Z,101453.54
2019-06-27T12:00:17.388Z,101457.59
2019-06-27T12:02:43.598Z,101444.67
2019-06-27T12:05:09.797Z,101449.58
2019-06-27T12:07:35.833Z,101445.12
2019-06-27T12:10:03.348Z,101438.53
2019-06-27T12:12:29.445Z,101427.09
2019-06-27T12:14:55.476Z,101421.38
2019-06-27T12:17:21.488Z,101442.27
2019-06-27T12:19:47.559Z,101444.50
2019-06-27T12:22:13.527Z,101443.16
2019-06-27T12:24:39.789Z,101443.64
2019-06-27T12:27:05.751Z,101432.48
2019-06-27T12:29:31.753Z,101437.69
2019-06-27T12:31:57.671Z,101442.44
2019-06-27T12:34:23.780Z,101444.66
2019-06-27T12:36:49.742Z,101438.10
2019-06-27T12:39:15.874Z,101443.58
2019-06-27T12:41:42.012Z,101429.36
2019-06-27T12:44:08.073Z,101429.75
2019-06-27T12:46:34.236Z,101430.75
2019-06-27T12:49:00.355Z,101432.28
2019-06-27T12:51:26.346Z,101423.00
2019-06-27T12:53:55.724Z,101431.59
2019-06-27T12:56:20.282Z,101416.54
2019-06-27T12:58:46.405Z,101419.01
2019-06-27T13:01:12.537Z,101425.50
2019-06-27T13:03:38.656Z,101423.39
2019-06-27T13:06:04.743Z,101416.84
2019-06-27T13:08:30.661Z,101412.66
2019-06-27T13:10:56.908Z,101409.09
2019-06-27T13:13:23.019Z,101418.23
2019-06-27T13:15:49.015Z,101415.52
2019-06-27T13:18:15.130Z,101418.16
2019-06-27T13:20:56.565Z,101425.66
2019-06-27T13:23:08.942Z,101433.08
2019-06-27T13:25:35.076Z,101434.38
2019-06-27T13:28:01.119Z,101433.65
2019-06-27T13:30:27.356Z,101431.22
2019-06-27T13:32:53.432Z,101428.35
2019-06-27T13:35:19.337Z,101432.78
2019-06-27T13:37:45.298Z,101427.61
2019-06-27T13:40:11.992Z,101433.53
2019-06-27T13:42:38.632Z,101441.28
2019-06-27T13:45:06.019Z,101427.03
2019-06-27T13:47:32.081Z,101429.91
2019-06-27T13:49:58.182Z,101420.22
2019-06-27T13:52:24.280Z,101422.41
2019-06-27T13:54:50.476Z,101425.23
2019-06-27T13:57:16.495Z,101432.88
2019-06-27T13:59:42.392Z,101434.09
2019-06-27T14:02:08.448Z,101425.85
2019-06-27T14:04:34.597Z,101431.20
2019-06-27T14:07:00.691Z,101427.76
2019-06-27T14:09:26.690Z,101427.13
2019-06-27T14:11:52.684Z,101432.14
2019-06-27T14:14:18.661Z,101414.38
2019-06-27T14:16:44.764Z,101424.36
2019-06-27T14:19:10.722Z,101426.93
2019-06-27T14:21:36.603Z,101425.05
2019-06-27T14:24:02.972Z,101427.63
2019-06-27T14:26:28.886Z,101421.23
2019-06-27T14:28:54.904Z,101415.56
2019-06-27T14:31:21.194Z,101419.49
2019-06-27T14:33:47.088Z,101420.81
2019-06-27T14:36:13.024Z,101419.59
2019-06-27T14:38:39.317Z,101413.84
2019-06-27T14:41:05.414Z,101422.64
2019-06-27T14:43:31.487Z,101427.92
2019-06-27T14:45:57.590Z,101426.22
2019-06-27T14:48:23.466Z,101439.92
2019-06-27T14:50:49.362Z,101436.97
2019-06-27T14:53:15.471Z,101429.63
2019-06-27T14:55:41.404Z,101422.99
2019-06-27T14:58:07.450Z,101438.88
2019-06-27T15:00:33.651Z,101434.81
2019-06-27T15:02:59.559Z,101440.86
2019-06-27T15:05:32.469Z,101437.32
2019-06-27T15:07:53.638Z,101446.30
2019-06-27T15:10:19.954Z,101440.03
2019-06-27T15:12:56.460Z,101441.67
2019-06-27T15:15:14.869Z,101445.00
2019-06-27T15:17:40.949Z,101435.16
2019-06-27T15:20:06.890Z,101439.23
2019-06-27T15:22:33.349Z,101442.78
2019-06-27T15:25:00.773Z,101435.16
2019-06-27T15:27:26.919Z,101439.93
2019-06-27T15:29:52.984Z,101440.31
2019-06-27T15:32:18.878Z,101445.31
2019-06-27T15:34:44.799Z,101449.88
2019-06-27T15:37:10.924Z,101443.82
2019-06-27T15:39:36.917Z,101443.19
2019-06-27T15:42:03.147Z,101438.84
2019-06-27T15:44:29.420Z,101432.86
2019-06-27T15:46:55.305Z,101442.72
2019-06-27T15:49:21.219Z,101441.30
2019-06-27T15:51:47.399Z,101439.39
2019-06-27T15:54:13.342Z,101431.20
2019-06-27T15:56:39.300Z,101426.16
2019-06-27T15:59:05.389Z,101446.23
2019-06-27T16:01:31.291Z,101448.30
2019-06-27T16:03:57.281Z,101445.53
2019-06-27T16:06:23.327Z,101448.33
2019-06-27T16:08:49.383Z,101441.73
2019-06-27T16:11:15.465Z,101455.66
2019-06-27T16:13:41.671Z,101450.08
2019-06-27T16:16:07.703Z,101465.11
2019-06-27T16:18:33.586Z,101453.45
2019-06-27T16:20:59.751Z,101453.34
2019-06-27T16:23:25.649Z,101443.56
2019-06-27T16:25:51.596Z,101439.94
2019-06-27T16:28:17.824Z,101456.68
2019-06-27T16:30:43.844Z,101450.97
2019-06-27T16:33:09.742Z,101455.23
2019-06-27T16:35:37.970Z,101457.96
2019-06-27T16:38:04.087Z,101465.48
2019-06-27T16:40:29.984Z,101463.98
2019-06-27T16:42:56.199Z,101463.34
2019-06-27T16:45:22.331Z,101475.27
2019-06-27T16:47:48.240Z,101472.51
2019-06-27T16:50:14.625Z,101476.94
2019-06-27T16:52:40.750Z,101474.07
2019-06-27T16:55:07.051Z,101472.69
2019-06-27T16:57:33.239Z,101482.20
2019-06-27T16:59:59.221Z,101484.74
2019-06-27T17:02:25.146Z,101478.66
2019-06-27T17:04:51.168Z,101485.47
2019-06-27T17:07:17.252Z,101493.19
2019-06-27T17:09:44.139Z,101485.95
2019-06-27T17:12:10.146Z,101484.80
2019-06-27T17:14:36.072Z,101494.56
2019-06-27T17:17:02.109Z,101491.37
2019-06-27T17:19:28.150Z,101495.36
2019-06-27T17:21:54.325Z,101502.89
2019-06-27T17:24:20.461Z,101501.34
2019-06-27T17:26:46.847Z,101495.25
2019-06-27T17:29:12.835Z,101508.47
2019-06-27T17:31:38.753Z,101499.04
2019-06-27T17:34:04.941Z,101502.29
2019-06-27T17:36:31.036Z,101503.04
2019-06-27T17:38:56.963Z,101501.60
2019-06-27T17:41:23.126Z,101507.42
2019-06-27T17:43:49.018Z,101509.61
2019-06-27T17:46:14.904Z,101507.77
2019-06-27T17:48:41.150Z,101512.70
2019-06-27T17:51:08.142Z,101507.64
2019-06-27T17:53:34.159Z,101511.35
2019-06-27T17:56:00.343Z,101519.95
2019-06-27T17:58:26.256Z,101516.38
2019-06-27T18:00:52.286Z,101507.03
2019-06-27T18:03:18.468Z,101509.39
2019-06-27T18:05:44.380Z,101514.07
2019-06-27T18:08:10.290Z,101521.49
2019-06-27T18:10:36.539Z,101511.50
2019-06-27T18:13:02.659Z,101519.13
2019-06-27T18:15:28.754Z,101517.91
2019-06-27T18:17:54.878Z,101517.05
2019-06-27T18:20:20.862Z,101527.52
2019-06-27T18:22:46.787Z,101526.78
2019-06-27T18:25:13.010Z,101527.79
2019-06-27T18:27:39.004Z,101525.56
2019-06-27T18:30:05.672Z,101530.50
2019-06-27T18:32:31.810Z,101530.72
2019-06-27T18:34:57.703Z,101538.84
2019-06-27T18:37:29.583Z,101533.42
2019-06-27T18:39:51.665Z,101541.29
2019-06-27T18:42:17.553Z,101543.59
2019-06-27T18:44:43.456Z,101539.66
2019-06-27T18:47:09.477Z,101540.75
2019-06-27T18:49:35.376Z,101548.95
2019-06-27T18:52:01.401Z,101544.89
2019-06-27T18:54:27.494Z,101543.67
2019-06-27T18:56:53.488Z,101544.29
2019-06-27T18:59:19.389Z,101550.84
2019-06-27T19:01:45.817Z,101543.11
2019-06-27T19:04:13.636Z,101558.41
2019-06-27T19:06:39.523Z,101552.16
2019-06-27T19:09:05.973Z,101557.84
2019-06-27T19:11:31.986Z,101569.45
2019-06-27T19:13:57.852Z,101571.91
2019-06-27T19:16:23.914Z,101567.40
2019-06-27T19:18:54.219Z,101575.91
2019-06-27T19:21:38.754Z,101571.27
2019-06-27T19:24:06.628Z,101575.73
2019-06-27T19:26:32.744Z,101580.67
2019-06-27T19:28:58.820Z,101587.31
2019-06-27T19:31:24.773Z,101579.59
2019-06-27T19:33:50.799Z,101581.70
2019-06-27T19:36:17.155Z,101587.91
2019-06-27T19:38:43.173Z,101587.56
2019-06-27T19:41:09.170Z,101590.00
2019-06-27T19:43:35.322Z,101589.63
2019-06-27T19:46:01.347Z,101583.72
2019-06-27T19:48:27.460Z,101589.73
2019-06-27T19:50:54.877Z,101599.66
2019-06-27T19:53:20.842Z,101596.58
2019-06-27T19:55:46.852Z,101601.22
2019-06-27T19:58:13.116Z,101597.64
2019-06-27T20:00:39.031Z,101603.64
2019-06-27T20:03:05.047Z,101609.52
2019-06-27T20:05:31.249Z,101614.88
2019-06-27T20:07:57.139Z,101619.27
2019-06-27T20:10:23.255Z,101622.80
2019-06-27T20:12:49.558Z,101622.39
2019-06-27T20:15:15.571Z,101624.56
2019-06-27T20:17:41.454Z,101625.54
2019-06-27T20:20:07.913Z,101626.00
2019-06-27T20:22:33.984Z,101626.42
2019-06-27T20:24:59.881Z,101630.93
2019-06-27T20:27:26.047Z,101631.78
2019-06-27T20:29:51.965Z,101632.12
2019-06-27T20:32:18.157Z,101633.81
2019-06-27T20:34:44.310Z,101634.14
2019-06-27T20:37:10.303Z,101640.83
2019-06-27T20:39:36.244Z,101642.16
2019-06-27T20:42:02.564Z,101642.48
2019-06-27T20:44:28.553Z,101650.41
2019-06-27T20:46:54.561Z,101647.09
2019-06-27T20:49:20.660Z,101652.78
2019-06-27T20:51:47.070Z,101667.06
2019-06-27T20:54:13.201Z,101662.47
2019-06-27T20:56:39.191Z,101667.83
2019-06-27T20:59:05.202Z,101671.69
2019-06-27T21:01:31.808Z,101671.17
2019-06-27T21:03:58.452Z,101672.23
2019-06-27T21:06:24.493Z,101674.77
2019-06-27T21:08:51.869Z,101676.34
2019-06-27T21:11:18.088Z,101675.68
2019-06-27T21:13:44.127Z,101674.95
2019-06-27T21:16:10.266Z,101683.14
2019-06-27T21:18:36.432Z,101686.89
2019-06-27T21:21:02.463Z,101691.91
2019-06-27T21:23:28.365Z,101695.28
2019-06-27T21:25:54.379Z,101692.91
2019-06-27T21:28:20.309Z,101693.70
2019-06-27T21:30:46.313Z,101698.67
2019-06-27T21:33:12.386Z,101692.83
2019-06-27T21:35:38.419Z,101698.64
2019-06-27T21:38:04.431Z,101690.98
2019-06-27T21:40:30.722Z,101693.11
2019-06-27T21:42:56.765Z,101694.29
2019-06-27T21:45:22.853Z,101697.30
2019-06-27T21:47:48.870Z,101698.30
2019-06-27T21:50:14.977Z,101696.80
2019-06-27T21:52:41.117Z,101701.41
2019-06-27T21:55:07.384Z,101700.47
2019-06-27T21:57:33.394Z,101706.62
2019-06-27T21:59:59.523Z,101713.56
2019-06-27T22:02:25.693Z,101700.31
2019-06-27T22:04:51.606Z,101698.80
2019-06-27T22:07:17.520Z,101703.91
2019-06-27T22:09:43.841Z,101709.96
2019-06-27T22:12:09.857Z,101707.58
2019-06-27T22:14:35.958Z,101712.48
2019-06-27T22:17:02.091Z,101712.51
2019-06-27T22:19:27.980Z,101717.68
2019-06-27T22:21:53.993Z,101722.11
2019-06-27T22:24:20.053Z,101721.06
2019-06-27T22:26:46.182Z,101725.02
2019-06-27T22:29:13.208Z,101725.50
2019-06-27T22:31:39.250Z,101728.85
2019-06-27T22:34:05.153Z,101730.86
2019-06-27T22:36:31.158Z,101728.97
2019-06-27T22:39:15.570Z,101740.66
2019-06-27T22:41:59.974Z,101737.88
2019-06-27T22:44:44.438Z,101736.52
2019-06-27T22:47:28.931Z,101736.86
2019-06-27T22:49:54.930Z,101738.48
2019-06-27T22:52:34.561Z,101738.30
2019-06-27T22:55:05.372Z,101739.55
2019-06-27T22:57:31.291Z,101733.22
2019-06-27T22:59:57.197Z,101733.55
2019-06-27T23:02:23.342Z,101735.77
2019-06-27T23:04:49.360Z,101735.64
2019-06-27T23:07:15.264Z,101738.32
2019-06-27T23:09:56.001Z,101733.33
2019-06-27T23:12:09.431Z,101736.47
2019-06-27T23:14:35.365Z,101733.27
2019-06-27T23:17:01.559Z,101739.88
2019-06-27T23:19:27.453Z,101744.73
2019-06-27T23:21:53.479Z,101742.41
2019-06-27T23:24:19.572Z,101740.45
2019-06-27T23:26:45.701Z,101738.50
2019-06-27T23:29:11.693Z,101736.97
2019-06-27T23:31:37.726Z,101725.14
2019-06-27T23:34:03.730Z,101733.94
2019-06-27T23:36:29.818Z,101739.94
2019-06-27T23:38:55.853Z,101743.17
2019-06-27T23:41:21.754Z,101745.24
2019-06-27T23:43:47.776Z,101740.61
2019-06-27T23:46:33.498Z,101742.70
2019-06-27T23:48:59.498Z,101751.39
2019-06-27T23:51:25.563Z,101749.34
2019-06-27T23:53:51.735Z,101751.36
2019-06-27T23:56:17.644Z,101754.20
2019-06-27T23:58:43.568Z,101753.41
